This is the latest recevied weather packets stored in our database for station/object AA0RD-13. If no packets are shown the sender has not sent any weather packets the latest 10 day(s).
| Time | Temp. | Humidity | Pressure | Rain* | Wind** | Luminosity | Snow |
|---|---|---|---|---|---|---|---|
| 1777799008 | 13.33° C | 83% | 1014.5 hPa | 0 mm | - | - | - |
| 1777796297 | 12.78° C | 85% | 1014.5 hPa | 0 mm | - | - | - |
| 1777795123 | 12.78° C | 86% | 1014.5 hPa | 0 mm | - | - | - |
| 1777793910 | 12.22° C | 86% | 1014.4 hPa | 0 mm | - | - | - |
| 1777793622 | 12.22° C | 87% | 1014.4 hPa | 0 mm | - | - | - |
| 1777793005 | 12.22° C | 87% | 1014.5 hPa | 0 mm | - | - | - |
| 1777789402 | 11.67° C | 90% | 1014.5 hPa | 0 mm | - | - | - |
| 1777788207 | 11.67° C | 90% | 1014.6 hPa | 0 mm | - | - | - |
| 1777787899 | 11.67° C | 90% | 1014.6 hPa | 0 mm | - | - | - |
| 1777787615 | 11.67° C | 90% | 1014.6 hPa | 0 mm | - | - | - |
| 1777787306 | 11.67° C | 89% | 1014.6 hPa | 0 mm | - | - | - |
| 1777786997 | 11.67° C | 89% | 1014.5 hPa | 0 mm | - | - | - |
| 1777785515 | 12.22° C | 88% | 1014.7 hPa | 0 mm | - | - | - |
| 1777783725 | 17.22° C | 66% | 1014.5 hPa | 0 mm | - | - | - |
| 1777783395 | 18.33° C | 62% | 1014.5 hPa | 0 mm | - | - | - |
| 1777783107 | 18.89° C | 59% | 1014.4 hPa | 0 mm | - | - | - |
| 1777782798 | 19.44° C | 55% | 1014.4 hPa | 0 mm | - | - | - |
| 1777782223 | 20° C | 51% | 1014.2 hPa | 0 mm | - | - | - |
| 1777781010 | 20.56° C | 51% | 1014.1 hPa | 0 mm | - | - | - |
| 1777780103 | 21.67° C | 48% | 1013.8 hPa | 0 mm | - | - | - |
| 1777779218 | 22.22° C | 45% | 1013.5 hPa | 0 mm | - | - | - |
| 1777777406 | 21.67° C | 48% | 1013.7 hPa | 0 mm | - | - | - |
| 1777775907 | 20.56° C | 55% | 1013.7 hPa | 0 mm | - | - | - |
| 1777775599 | 21.11° C | 54% | 1013.6 hPa | 0 mm | - | - | - |
| 1777774425 | 21.11° C | 56% | 1013.7 hPa | 0 mm | - | - | - |
* Rain latest hour (hover to see other rain measurements)
** Current wind speed in m/s (hover to see current wind gust speed)